SWA652 KBNA-KIND
Flight info
| Callsign | SWA652 |
|---|---|
| Flight time | 0h 46m |
| Altitude | 33000 |
| Route | KRSTA4 OLSIE HAGAL GIIBS4 |
| Aircraft | B738/M-SADE2E3GIJ4RWZ/LB1D1 |
Departure
| Time | 2026-05-06 00:33 |
|---|---|
| Airport | Nashville International Airport (KBNA) |
Arrival
| Time | 2026-05-06 01:20 |
|---|---|
| Airport | Indianapolis International Airport (KIND) |
| Time | Latitude | Longitude | Altitude | Speed | Heading |
|---|---|---|---|---|---|
| 2026-05-06 00:18 | 36.12833 | -86.67076 | 578 ft | 0 kts | 69° |
| 2026-05-06 00:23 | 36.12833 | -86.67077 | 578 ft | 1 kts | 69° |
| 2026-05-06 00:24 | 36.12827 | -86.67096 | 578 ft | 2 kts | 70° |
| 2026-05-06 00:24 | 36.12821 | -86.67114 | 580 ft | 2 kts | 70° |
| 2026-05-06 00:24 | 36.12815 | -86.67133 | 578 ft | 2 kts | 57° |
| 2026-05-06 00:24 | 36.12804 | -86.67148 | 578 ft | 2 kts | 13° |
| 2026-05-06 00:25 | 36.12794 | -86.67149 | 578 ft | 1 kts | 347° |
| 2026-05-06 00:25 | 36.12792 | -86.67148 | 578 ft | 0 kts | 346° |
| 2026-05-06 00:25 | 36.12801 | -86.67152 | 578 ft | 4 kts | 339° |
| 2026-05-06 00:26 | 36.12832 | -86.67196 | 577 ft | 10 kts | 302° |
| 2026-05-06 00:26 | 36.12825 | -86.67291 | 576 ft | 14 kts | 233° |
| 2026-05-06 00:26 | 36.12818 | -86.67302 | 579 ft | 0 kts | 233° |
| 2026-05-06 00:27 | 36.12817 | -86.67304 | 579 ft | 1 kts | 233° |
| 2026-05-06 00:27 | 36.12806 | -86.67321 | 580 ft | 4 kts | 232° |
| 2026-05-06 00:27 | 36.12778 | -86.67356 | 578 ft | 7 kts | 225° |
| 2026-05-06 00:27 | 36.12741 | -86.67420 | 580 ft | 11 kts | 263° |
| 2026-05-06 00:28 | 36.12791 | -86.67525 | 580 ft | 19 kts | 313° |
| 2026-05-06 00:28 | 36.12903 | -86.67677 | 579 ft | 28 kts | 312° |
| 2026-05-06 00:28 | 36.13043 | -86.67860 | 581 ft | 30 kts | 314° |
| 2026-05-06 00:28 | 36.13241 | -86.67883 | 578 ft | 32 kts | 19° |
| 2026-05-06 00:29 | 36.13460 | -86.67797 | 573 ft | 32 kts | 18° |
| 2026-05-06 00:29 | 36.13624 | -86.67731 | 569 ft | 24 kts | 16° |
| 2026-05-06 00:29 | 36.13739 | -86.67726 | 570 ft | 12 kts | 298° |
| 2026-05-06 00:29 | 36.13743 | -86.67738 | 570 ft | 0 kts | 290° |
| 2026-05-06 00:30 | 36.13744 | -86.67743 | 570 ft | 0 kts | 290° |
| 2026-05-06 00:30 | 36.13745 | -86.67745 | 570 ft | 0 kts | 290° |
| 2026-05-06 00:31 | 36.13745 | -86.67746 | 570 ft | 0 kts | 290° |
| 2026-05-06 00:31 | 36.13745 | -86.67748 | 570 ft | 1 kts | 290° |
| 2026-05-06 00:31 | 36.13746 | -86.67748 | 570 ft | 0 kts | 290° |
| 2026-05-06 00:32 | 36.13749 | -86.67761 | 574 ft | 4 kts | 289° |
| 2026-05-06 00:32 | 36.13762 | -86.67828 | 572 ft | 10 kts | 270° |
| 2026-05-06 00:32 | 36.13719 | -86.67886 | 573 ft | 10 kts | 200° |
| 2026-05-06 00:32 | 36.13599 | -86.67932 | 569 ft | 50 kts | 196° |
| 2026-05-06 00:33 | 36.12949 | -86.68185 | 581 ft | 142 kts | 197° |
| 2026-05-06 00:33 | 36.11803 | -86.68631 | 958 ft | 191 kts | 197° |
| 2026-05-06 00:33 | 36.10516 | -86.69305 | 1771 ft | 210 kts | 217° |
| 2026-05-06 00:33 | 36.09574 | -86.70675 | 3094 ft | 206 kts | 230° |
| 2026-05-06 00:34 | 36.08808 | -86.72178 | 4194 ft | 207 kts | 237° |
| 2026-05-06 00:34 | 36.08044 | -86.73779 | 4683 ft | 226 kts | 238° |
| 2026-05-06 00:34 | 36.07244 | -86.75502 | 5464 ft | 235 kts | 244° |
| 2026-05-06 00:34 | 36.06873 | -86.77492 | 6433 ft | 240 kts | 263° |
| 2026-05-06 00:35 | 36.07001 | -86.79538 | 6822 ft | 240 kts | 279° |
| 2026-05-06 00:35 | 36.07444 | -86.81566 | 6968 ft | 246 kts | 281° |
| 2026-05-06 00:35 | 36.07896 | -86.83601 | 6986 ft | 247 kts | 283° |
| 2026-05-06 00:35 | 36.08698 | -86.85503 | 6964 ft | 262 kts | 305° |
| 2026-05-06 00:36 | 36.10240 | -86.86808 | 7014 ft | 282 kts | 333° |
| 2026-05-06 00:36 | 36.12244 | -86.87148 | 7595 ft | 303 kts | 358° |
| 2026-05-06 00:36 | 36.14320 | -86.86668 | 8774 ft | 303 kts | 6° |
| 2026-05-06 00:36 | 36.16377 | -86.86043 | 9837 ft | 305 kts | 7° |
| 2026-05-06 00:37 | 36.18467 | -86.85396 | 10582 ft | 317 kts | 7° |
| 2026-05-06 00:37 | 36.20706 | -86.84723 | 10814 ft | 346 kts | 7° |
| 2026-05-06 00:37 | 36.23131 | -86.84007 | 11140 ft | 368 kts | 7° |
| 2026-05-06 00:37 | 36.25661 | -86.83258 | 11847 ft | 376 kts | 7° |
| 2026-05-06 00:38 | 36.28215 | -86.82506 | 12714 ft | 378 kts | 7° |
| 2026-05-06 00:38 | 36.30790 | -86.81752 | 13539 ft | 382 kts | 7° |
| 2026-05-06 00:38 | 36.33374 | -86.80860 | 14264 ft | 393 kts | 16° |
| 2026-05-06 00:38 | 36.35710 | -86.78982 | 14947 ft | 411 kts | 41° |
| 2026-05-06 00:39 | 36.37620 | -86.76303 | 15734 ft | 417 kts | 48° |
| 2026-05-06 00:39 | 36.39438 | -86.73467 | 16434 ft | 422 kts | 49° |
| 2026-05-06 00:39 | 36.41286 | -86.70604 | 17105 ft | 428 kts | 47° |
| 2026-05-06 00:39 | 36.43236 | -86.67802 | 17775 ft | 431 kts | 45° |
| 2026-05-06 00:40 | 36.45238 | -86.65078 | 18419 ft | 434 kts | 44° |
| 2026-05-06 00:40 | 36.47293 | -86.62308 | 19005 ft | 438 kts | 44° |
| 2026-05-06 00:40 | 36.49362 | -86.59492 | 19594 ft | 442 kts | 44° |
| 2026-05-06 00:40 | 36.51426 | -86.56643 | 20197 ft | 445 kts | 44° |
| 2026-05-06 00:41 | 36.53506 | -86.53745 | 20790 ft | 448 kts | 44° |
| 2026-05-06 00:41 | 36.55591 | -86.50832 | 21389 ft | 452 kts | 44° |
| 2026-05-06 00:41 | 36.57765 | -86.48023 | 21919 ft | 450 kts | 34° |
| 2026-05-06 00:41 | 36.60420 | -86.46054 | 22463 ft | 441 kts | 18° |
| 2026-05-06 00:42 | 36.63270 | -86.44664 | 23054 ft | 440 kts | 13° |
| 2026-05-06 00:42 | 36.66163 | -86.43385 | 23540 ft | 444 kts | 14° |
| 2026-05-06 00:42 | 36.69022 | -86.41975 | 23936 ft | 450 kts | 17° |
| 2026-05-06 00:42 | 36.71893 | -86.40403 | 24396 ft | 453 kts | 17° |
| 2026-05-06 00:43 | 36.74757 | -86.38732 | 24880 ft | 456 kts | 20° |
| 2026-05-06 00:43 | 36.77592 | -86.36918 | 25349 ft | 460 kts | 21° |
| 2026-05-06 00:43 | 36.80427 | -86.35034 | 25777 ft | 463 kts | 21° |
| 2026-05-06 00:43 | 36.83271 | -86.33131 | 26193 ft | 466 kts | 21° |
| 2026-05-06 00:44 | 36.86137 | -86.31227 | 26599 ft | 468 kts | 20° |
| 2026-05-06 00:44 | 36.89030 | -86.29324 | 27001 ft | 470 kts | 20° |
| 2026-05-06 00:44 | 36.91939 | -86.27426 | 27402 ft | 473 kts | 20° |
| 2026-05-06 00:44 | 36.94861 | -86.25529 | 27800 ft | 475 kts | 19° |
| 2026-05-06 00:45 | 36.97800 | -86.23622 | 28178 ft | 477 kts | 19° |
| 2026-05-06 00:45 | 37.00754 | -86.21705 | 28542 ft | 480 kts | 19° |
| 2026-05-06 00:45 | 37.03724 | -86.19774 | 28902 ft | 482 kts | 19° |
| 2026-05-06 00:45 | 37.06709 | -86.17831 | 29261 ft | 484 kts | 19° |
| 2026-05-06 00:46 | 37.09706 | -86.15876 | 29610 ft | 487 kts | 19° |
| 2026-05-06 00:46 | 37.12714 | -86.13912 | 30028 ft | 487 kts | 19° |
| 2026-05-06 00:46 | 37.15716 | -86.11946 | 30468 ft | 486 kts | 18° |
| 2026-05-06 00:46 | 37.18701 | -86.09991 | 30939 ft | 483 kts | 18° |
| 2026-05-06 00:47 | 37.21679 | -86.08042 | 31366 ft | 482 kts | 18° |
| 2026-05-06 00:47 | 37.24662 | -86.06129 | 31724 ft | 480 kts | 15° |
| 2026-05-06 00:47 | 37.27679 | -86.04362 | 32098 ft | 477 kts | 13° |
| 2026-05-06 00:47 | 37.30719 | -86.02752 | 32551 ft | 471 kts | 11° |
| 2026-05-06 00:48 | 37.33766 | -86.01282 | 32845 ft | 470 kts | 9° |
| 2026-05-06 00:48 | 37.39929 | -85.98522 | 32838 ft | 469 kts | 8° |
| 2026-05-06 00:49 | 37.46037 | -85.95660 | 32832 ft | 468 kts | 10° |
| 2026-05-06 00:49 | 37.52103 | -85.92661 | 32826 ft | 469 kts | 11° |
| 2026-05-06 00:50 | 37.58159 | -85.89611 | 32832 ft | 469 kts | 11° |
| 2026-05-06 00:50 | 37.64217 | -85.86558 | 32832 ft | 469 kts | 11° |
| 2026-05-06 00:51 | 37.70249 | -85.83520 | 32833 ft | 470 kts | 11° |
| 2026-05-06 00:51 | 37.76336 | -85.80453 | 32830 ft | 472 kts | 11° |
| 2026-05-06 00:52 | 37.82440 | -85.77370 | 32822 ft | 473 kts | 11° |
| 2026-05-06 00:52 | 37.88551 | -85.74278 | 32819 ft | 473 kts | 11° |
| 2026-05-06 00:53 | 37.94668 | -85.71177 | 32826 ft | 474 kts | 11° |
| 2026-05-06 00:53 | 38.00784 | -85.68070 | 32828 ft | 473 kts | 11° |
| 2026-05-06 00:54 | 38.06894 | -85.64961 | 32829 ft | 473 kts | 10° |
| 2026-05-06 00:54 | 38.13005 | -85.61847 | 32828 ft | 473 kts | 10° |
| 2026-05-06 00:55 | 38.19146 | -85.59247 | 32805 ft | 446 kts | 352° |
| 2026-05-06 00:55 | 38.22163 | -85.59331 | 32821 ft | 428 kts | 342° |
| 2026-05-06 00:55 | 38.25096 | -85.59873 | 32836 ft | 423 kts | 339° |
| 2026-05-06 00:56 | 38.30917 | -85.60948 | 32826 ft | 430 kts | 343° |
| 2026-05-06 00:56 | 38.36887 | -85.61655 | 32816 ft | 430 kts | 342° |
| 2026-05-06 00:57 | 38.42866 | -85.62537 | 32032 ft | 434 kts | 342° |
| 2026-05-06 00:57 | 38.45849 | -85.63003 | 31328 ft | 432 kts | 342° |
| 2026-05-06 00:57 | 38.48837 | -85.63468 | 30551 ft | 432 kts | 343° |
| 2026-05-06 00:57 | 38.51825 | -85.63930 | 29708 ft | 434 kts | 343° |
| 2026-05-06 00:58 | 38.54831 | -85.64389 | 28939 ft | 432 kts | 343° |
| 2026-05-06 00:58 | 38.57797 | -85.64835 | 28276 ft | 427 kts | 343° |
| 2026-05-06 00:58 | 38.60737 | -85.65270 | 27629 ft | 424 kts | 344° |
| 2026-05-06 00:58 | 38.63661 | -85.65696 | 26998 ft | 421 kts | 344° |
| 2026-05-06 00:59 | 38.66556 | -85.66117 | 26390 ft | 417 kts | 344° |
| 2026-05-06 00:59 | 38.69433 | -85.66537 | 25794 ft | 415 kts | 344° |
| 2026-05-06 00:59 | 38.72291 | -85.66957 | 25192 ft | 413 kts | 344° |
| 2026-05-06 00:59 | 38.75141 | -85.67378 | 24582 ft | 411 kts | 344° |
| 2026-05-06 01:00 | 38.77980 | -85.67798 | 23976 ft | 411 kts | 344° |
| 2026-05-06 01:00 | 38.80820 | -85.68219 | 23360 ft | 410 kts | 345° |
| 2026-05-06 01:00 | 38.83656 | -85.68639 | 22662 ft | 410 kts | 345° |
| 2026-05-06 01:00 | 38.86474 | -85.69055 | 22048 ft | 407 kts | 345° |
| 2026-05-06 01:01 | 38.89285 | -85.69469 | 21444 ft | 405 kts | 345° |
| 2026-05-06 01:01 | 38.92039 | -85.69876 | 20855 ft | 402 kts | 345° |
| 2026-05-06 01:01 | 38.94812 | -85.70287 | 20276 ft | 400 kts | 345° |
| 2026-05-06 01:01 | 38.97567 | -85.70696 | 19696 ft | 398 kts | 346° |
| 2026-05-06 01:02 | 39.00310 | -85.71103 | 19134 ft | 396 kts | 346° |
| 2026-05-06 01:02 | 39.03042 | -85.71522 | 18562 ft | 394 kts | 345° |
| 2026-05-06 01:02 | 39.05760 | -85.71994 | 17958 ft | 395 kts | 345° |
| 2026-05-06 01:02 | 39.08479 | -85.72487 | 17354 ft | 394 kts | 345° |
| 2026-05-06 01:03 | 39.11194 | -85.72972 | 16772 ft | 392 kts | 345° |
| 2026-05-06 01:03 | 39.13883 | -85.73445 | 16208 ft | 389 kts | 345° |
| 2026-05-06 01:03 | 39.16513 | -85.74069 | 15663 ft | 379 kts | 337° |
| 2026-05-06 01:03 | 39.18901 | -85.75290 | 15248 ft | 362 kts | 325° |
| 2026-05-06 01:04 | 39.21117 | -85.76809 | 14752 ft | 360 kts | 324° |
| 2026-05-06 01:04 | 39.23355 | -85.78284 | 14255 ft | 362 kts | 327° |
| 2026-05-06 01:04 | 39.25642 | -85.79654 | 13741 ft | 362 kts | 328° |
| 2026-05-06 01:04 | 39.27943 | -85.80968 | 13168 ft | 360 kts | 329° |
| 2026-05-06 01:05 | 39.30227 | -85.82262 | 12624 ft | 356 kts | 329° |
| 2026-05-06 01:05 | 39.32474 | -85.83550 | 12113 ft | 351 kts | 328° |
| 2026-05-06 01:05 | 39.34583 | -85.85042 | 11818 ft | 339 kts | 320° |
| 2026-05-06 01:05 | 39.36465 | -85.86808 | 11528 ft | 331 kts | 314° |
| 2026-05-06 01:06 | 39.38168 | -85.88742 | 11246 ft | 318 kts | 310° |
| 2026-05-06 01:06 | 39.39743 | -85.90625 | 10968 ft | 300 kts | 311° |
| 2026-05-06 01:06 | 39.41274 | -85.92368 | 10710 ft | 286 kts | 312° |
| 2026-05-06 01:06 | 39.42765 | -85.93980 | 10504 ft | 273 kts | 313° |
| 2026-05-06 01:07 | 39.43592 | -85.94854 | 10364 ft | 267 kts | 313° |
| 2026-05-06 01:07 | 39.45020 | -85.96354 | 10163 ft | 264 kts | 313° |
| 2026-05-06 01:07 | 39.46458 | -85.97860 | 9912 ft | 269 kts | 314° |
| 2026-05-06 01:07 | 39.47923 | -85.99321 | 9578 ft | 269 kts | 316° |
| 2026-05-06 01:08 | 39.49417 | -86.00778 | 9232 ft | 268 kts | 316° |
| 2026-05-06 01:08 | 39.50900 | -86.02219 | 8890 ft | 265 kts | 316° |
| 2026-05-06 01:08 | 39.52364 | -86.03648 | 8572 ft | 263 kts | 316° |
| 2026-05-06 01:08 | 39.53828 | -86.05083 | 8259 ft | 266 kts | 316° |
| 2026-05-06 01:09 | 39.55307 | -86.06536 | 7924 ft | 265 kts | 317° |
| 2026-05-06 01:09 | 39.56767 | -86.07969 | 7599 ft | 262 kts | 317° |
| 2026-05-06 01:09 | 39.58214 | -86.09393 | 7288 ft | 261 kts | 317° |
| 2026-05-06 01:09 | 39.59658 | -86.10825 | 7001 ft | 260 kts | 316° |
| 2026-05-06 01:10 | 39.60985 | -86.12376 | 6808 ft | 254 kts | 310° |
| 2026-05-06 01:10 | 39.62198 | -86.13999 | 6611 ft | 245 kts | 309° |
| 2026-05-06 01:10 | 39.63350 | -86.15562 | 6426 ft | 234 kts | 309° |
| 2026-05-06 01:10 | 39.64459 | -86.17046 | 6258 ft | 226 kts | 310° |
| 2026-05-06 01:11 | 39.65402 | -86.18629 | 6083 ft | 219 kts | 288° |
| 2026-05-06 01:11 | 39.65614 | -86.20548 | 6049 ft | 217 kts | 261° |
| 2026-05-06 01:11 | 39.65114 | -86.22365 | 6009 ft | 214 kts | 236° |
| 2026-05-06 01:11 | 39.64137 | -86.23808 | 6008 ft | 214 kts | 226° |
| 2026-05-06 01:12 | 39.63058 | -86.25165 | 5783 ft | 221 kts | 225° |
| 2026-05-06 01:12 | 39.61945 | -86.26561 | 5456 ft | 221 kts | 226° |
| 2026-05-06 01:12 | 39.60853 | -86.27941 | 5123 ft | 218 kts | 226° |
| 2026-05-06 01:12 | 39.59777 | -86.29310 | 4785 ft | 215 kts | 226° |
| 2026-05-06 01:13 | 39.58730 | -86.30642 | 4457 ft | 212 kts | 227° |
| 2026-05-06 01:13 | 39.57689 | -86.32008 | 4131 ft | 214 kts | 230° |
| 2026-05-06 01:13 | 39.56682 | -86.33441 | 4050 ft | 215 kts | 230° |
| 2026-05-06 01:13 | 39.55679 | -86.34888 | 4013 ft | 217 kts | 231° |
| 2026-05-06 01:14 | 39.53660 | -86.37802 | 4015 ft | 218 kts | 231° |
| 2026-05-06 01:14 | 39.52673 | -86.39298 | 3993 ft | 218 kts | 241° |
| 2026-05-06 01:14 | 39.52293 | -86.41126 | 4004 ft | 210 kts | 276° |
| 2026-05-06 01:15 | 39.52810 | -86.42847 | 4019 ft | 207 kts | 309° |
| 2026-05-06 01:15 | 39.53796 | -86.44198 | 4014 ft | 207 kts | 316° |
| 2026-05-06 01:15 | 39.55008 | -86.45176 | 3996 ft | 209 kts | 345° |
| 2026-05-06 01:15 | 39.56463 | -86.45127 | 3977 ft | 215 kts | 12° |
| 2026-05-06 01:16 | 39.57914 | -86.44570 | 3903 ft | 220 kts | 16° |
| 2026-05-06 01:16 | 39.59372 | -86.43976 | 3818 ft | 219 kts | 16° |
| 2026-05-06 01:16 | 39.60806 | -86.43342 | 3703 ft | 218 kts | 24° |
| 2026-05-06 01:16 | 39.61922 | -86.42030 | 3480 ft | 222 kts | 50° |
| 2026-05-06 01:17 | 39.62802 | -86.40359 | 3126 ft | 220 kts | 52° |
| 2026-05-06 01:17 | 39.63691 | -86.38872 | 3002 ft | 196 kts | 46° |
| 2026-05-06 01:17 | 39.64548 | -86.37655 | 2983 ft | 170 kts | 43° |
| 2026-05-06 01:17 | 39.65324 | -86.36601 | 2988 ft | 158 kts | 43° |
| 2026-05-06 01:18 | 39.66047 | -86.35620 | 3021 ft | 141 kts | 42° |
| 2026-05-06 01:18 | 39.66697 | -86.34756 | 2995 ft | 131 kts | 40° |
| 2026-05-06 01:18 | 39.67336 | -86.33922 | 2804 ft | 126 kts | 41° |
| 2026-05-06 01:18 | 39.67957 | -86.33115 | 2252 ft | 134 kts | 42° |
| 2026-05-06 01:19 | 39.68662 | -86.32109 | 1280 ft | 163 kts | 43° |
| 2026-05-06 01:19 | 39.69460 | -86.31127 | 922 ft | 150 kts | 43° |
| 2026-05-06 01:19 | 39.70167 | -86.30253 | 788 ft | 134 kts | 45° |
| 2026-05-06 01:19 | 39.70800 | -86.29454 | 781 ft | 116 kts | 45° |
| 2026-05-06 01:20 | 39.71299 | -86.28808 | 783 ft | 71 kts | 43° |
| 2026-05-06 01:20 | 39.71545 | -86.28505 | 780 ft | 43 kts | 44° |
| 2026-05-06 01:20 | 39.71673 | -86.28385 | 777 ft | 12 kts | 352° |
| 2026-05-06 01:20 | 39.71704 | -86.28406 | 777 ft | 0 kts | 321° |
| 2026-05-06 01:22 | 39.71722 | -86.28426 | 777 ft | 8 kts | 318° |
| 2026-05-06 01:22 | 39.71755 | -86.28509 | 778 ft | 12 kts | 264° |
| 2026-05-06 01:22 | 39.71709 | -86.28596 | 779 ft | 12 kts | 227° |
| 2026-05-06 01:23 | 39.71634 | -86.28693 | 780 ft | 11 kts | 223° |
| 2026-05-06 01:23 | 39.71596 | -86.28740 | 780 ft | 11 kts | 228° |
| 2026-05-06 01:23 | 39.71605 | -86.28831 | 781 ft | 11 kts | 305° |
| 2026-05-06 01:23 | 39.71636 | -86.28915 | 781 ft | 10 kts | 266° |
| 2026-05-06 01:24 | 39.71601 | -86.28995 | 782 ft | 10 kts | 235° |
| 2026-05-06 01:24 | 39.71561 | -86.29069 | 783 ft | 10 kts | 233° |
| 2026-05-06 01:24 | 39.71544 | -86.29151 | 782 ft | 10 kts | 277° |
| 2026-05-06 01:24 | 39.71570 | -86.29229 | 783 ft | 9 kts | 294° |
| 2026-05-06 01:25 | 39.71584 | -86.29272 | 784 ft | 3 kts | 292° |
| 2026-05-06 01:25 | 39.71585 | -86.29277 | 784 ft | 0 kts | 291° |